Overview Statistics Trail Chart Weather Telemetry Raw packets
 

This is the latest recevied weather packets stored in our database for station/object HK4K-15. If no packets are shown the sender has not sent any weather packets the latest 10 day(s).

<< 1 2 3 4 5 6 7 >>
Time Temp. Humidity Pressure Rain* Wind** Luminosity Snow
1788496931 22.22° C 68% 1017 hPa 0 mm - - -
1788495911 22.22° C 70% 1017 hPa 0 mm - - -
1788494891 13.33° C 74% 1017 hPa 0 mm - - -
1788493870 13.33° C 73% 1017 hPa 0 mm - - -
1788492850 13.33° C 72% 1017 hPa 0 mm - - -
1788491829 13.89° C 71% 1017 hPa 0 mm - - -
1788490809 13.89° C 70% 1017 hPa 0 mm - - -
1788489788 13.89° C 68% 1017 hPa 0 mm - - -
1788488768 13.89° C 67% 1016 hPa 0 mm - - -
1788487749 13.89° C 65% 1016 hPa 0 mm - - -
1788486727 14.44° C 64% 1016 hPa 0 mm - - -
1788485706 15° C 63% 1016 hPa 0 mm - - -
1788484686 15.56° C 61% 1015 hPa 0 mm - - -
1788483665 16.11° C 60% 1015 hPa 0 mm - - -
1788482674 17.22° C 60% 1014 hPa 0 mm - - -
1788481623 17.78° C 60% 1013 hPa 0 mm - - -
1788479582 18.33° C 59% 1013 hPa 0 mm - - -
1788478562 18.89° C 59% 1013 hPa 0 mm - - -
1788477541 19.44° C 59% 1012 hPa 0 mm - - -
1788476518 20° C 59% 1012 hPa 0 mm - - -
1788475496 20.56° C 59% 1011 hPa 0 mm - - -
1788474475 21.11° C 58% 1010 hPa 0 mm - - -
1788473455 21.67° C 59% 1010 hPa 0 mm - - -
1788472434 22.22° C 59% 1010 hPa 0 mm - - -
1788471414 22.78° C 59% 1010 hPa 0 mm - - -

* Rain latest hour (hover to see other rain measurements)
** Current wind speed in m/s (hover to see current wind gust speed)